Time;durP1;ratioP1;P1;durP2;ratioP2;P2;SDS_P1;SDS_P2;PMS_P1;PMS_P2;Temp;Humidity;BMP_temperature;BMP_pressure;BME280_temperature;BME280_humidity;BME280_pressure;Samples;Min_cycle;Max_cycle;Signal;HPM_P1;HPM_P2
2022/06/16 07:58:58;;;;;;;7.07;3.17;;;;;;;19.29;45.18;102092.19;5215437;28;20755;-81
2022/06/16 08:01:29;;;;;;;5.57;3.50;;;;;;;19.23;44.84;102099.94;5215301;28;20034;-81
2022/06/16 08:04:05;;;;;;;4.50;2.60;;;;;;;19.21;45.85;102096.59;5211840;28;20109;-82
2022/06/16 08:06:37;;;;;;;6.00;3.28;;;;;;;19.17;44.78;102100.34;5214175;28;20098;-80
2022/06/16 08:09:10;;;;;;;6.55;3.53;;;;;;;19.26;45.08;102098.47;5214962;28;20030;-76
2022/06/16 08:14:36;;;;;;;4.78;2.65;;;;;;;19.40;45.10;102113.28;5214015;28;20039;-82
2022/06/16 08:17:12;;;;;;;5.35;2.80;;;;;;;19.55;45.36;102112.91;5214241;28;20022;-79
2022/06/16 08:19:44;;;;;;;3.47;2.97;;;;;;;19.62;44.39;102117.25;5213600;28;20077;-82
2022/06/16 08:22:15;;;;;;;5.53;2.78;;;;;;;19.75;43.38;102105.13;5212805;28;20057;-82
2022/06/16 08:24:47;;;;;;;5.85;2.22;;;;;;;19.94;43.32;102110.50;5214339;28;20030;-83
2022/06/16 08:27:21;;;;;;;7.35;4.10;;;;;;;19.73;43.19;102105.44;5213020;28;20038;-82
2022/06/16 08:29:53;;;;;;;5.82;3.22;;;;;;;19.89;43.25;102105.03;5223573;28;20023;-80
2022/06/16 08:32:24;;;;;;;4.47;3.10;;;;;;;19.91;43.68;102100.72;5271157;28;20049;-80
2022/06/16 08:34:56;;;;;;;6.38;3.13;;;;;;;20.08;42.70;102094.38;5213030;28;20105;-79
2022/06/16 08:37:27;;;;;;;4.80;3.15;;;;;;;20.08;42.39;102094.38;5213743;28;20062;-81
2022/06/16 08:39:59;;;;;;;4.68;2.92;;;;;;;20.15;41.85;102099.53;5198829;28;20163;-78
2022/06/16 08:42:39;;;;;;;6.00;2.80;;;;;;;20.04;41.96;102107.41;5214106;28;20022;-76
2022/06/16 08:45:27;;;;;;;5.18;2.33;;;;;;;20.25;41.69;102102.06;5214068;28;20023;-77
2022/06/16 08:48:14;;;;;;;25.55;18.70;;;;;;;20.31;41.98;102097.13;5213914;28;20079;-79
2022/06/16 08:50:55;;;;;;;7.00;2.92;;;;;;;20.40;41.18;102110.09;5214234;28;20026;-78
2022/06/16 08:53:48;;;;;;;5.47;2.40;;;;;;;20.47;41.34;102111.59;5214236;28;20022;-79
2022/06/16 08:56:30;;;;;;;10.90;8.32;;;;;;;20.39;41.39;102116.84;5212298;28;20035;-73
2022/06/16 08:59:12;;;;;;;7.45;4.07;;;;;;;20.38;41.43;102118.03;5214087;28;20053;-78
2022/06/16 09:02:05;;;;;;;5.22;3.30;;;;;;;20.50;41.73;102133.47;5213171;28;20415;-80
2022/06/16 09:04:40;;;;;;;3.05;2.45;;;;;;;20.51;41.65;102126.69;5213476;28;20079;-79
2022/06/16 09:07:30;;;;;;;5.20;2.83;;;;;;;20.62;42.06;102133.72;5207747;28;20030;-78
2022/06/16 09:10:16;;;;;;;6.57;2.85;;;;;;;20.92;41.93;102131.13;5199647;28;20038;-80
2022/06/16 09:13:24;;;;;;;5.63;3.28;;;;;;;20.82;41.70;102132.28;5180514;28;20114;-84
2022/06/16 09:16:28;;;;;;;7.47;3.38;;;;;;;20.91;41.28;102135.91;5193864;28;20098;-80
2022/06/16 09:19:12;;;;;;;5.68;2.47;;;;;;;20.90;40.96;102139.91;5206959;28;20420;-79
2022/06/16 09:21:46;;;;;;;6.88;3.50;;;;;;;21.02;40.79;102142.09;5200375;28;20026;-81
2022/06/16 09:24:40;;;;;;;5.63;2.60;;;;;;;20.91;40.70;102149.19;5193947;28;20027;-81
2022/06/16 09:27:37;;;;;;;6.15;2.72;;;;;;;20.96;40.96;102146.22;5194016;28;20039;-80
2022/06/16 09:30:15;;;;;;;7.10;3.33;;;;;;;21.04;40.21;102146.25;5219856;28;20043;-78
2022/06/16 09:33:18;;;;;;;3.90;2.90;;;;;;;21.14;40.00;102136.63;5306958;28;20024;-79
2022/06/16 09:36:14;;;;;;;6.05;2.90;;;;;;;21.22;40.57;102138.63;5179992;28;20043;-80
2022/06/16 09:38:54;;;;;;;4.78;2.75;;;;;;;21.20;40.61;102142.94;5178228;28;20474;-77
2022/06/16 09:44:30;;;;;;;4.68;3.17;;;;;;;21.07;40.51;102139.13;5178886;28;20034;-81
2022/06/16 09:47:10;;;;;;;4.30;2.88;;;;;;;20.91;41.15;102143.56;5180203;28;20518;-81
2022/06/16 09:49:57;;;;;;;6.75;3.78;;;;;;;21.10;41.41;102143.28;5194399;28;20385;-81
2022/06/16 09:52:40;;;;;;;5.47;3.15;;;;;;;21.25;41.32;102149.25;5199219;28;20389;-81
2022/06/16 09:55:19;;;;;;;6.43;4.10;;;;;;;21.23;41.15;102145.09;5199692;28;20515;-76
2022/06/16 09:58:01;;;;;;;9.07;4.15;;;;;;;21.34;41.00;102137.94;5198479;28;20506;-78
2022/06/16 10:00:36;;;;;;;6.47;3.13;;;;;;;21.38;41.21;102138.13;5199728;28;20030;-77
2022/06/16 10:03:17;;;;;;;8.82;3.92;;;;;;;21.41;41.15;102131.84;5210602;28;20043;-77
2022/06/16 10:06:06;;;;;;;6.07;3.35;;;;;;;21.53;41.78;102143.31;5281296;28;20024;-81
2022/06/16 10:08:42;;;;;;;8.13;3.90;;;;;;;21.43;40.72;102140.81;5273351;28;20529;-81
2022/06/16 10:11:26;;;;;;;5.30;3.45;;;;;;;21.62;41.24;102144.09;5199911;28;20394;-82
2022/06/16 10:14:17;;;;;;;5.63;3.42;;;;;;;21.56;41.01;102134.16;5198696;28;20411;-80
2022/06/16 10:17:12;;;;;;;5.18;3.63;;;;;;;21.80;40.95;102135.63;5178931;28;20031;-82
2022/06/16 10:19:45;;;;;;;6.55;3.60;;;;;;;21.85;40.37;102146.72;5178602;28;20042;-82
2022/06/16 10:22:20;;;;;;;10.10;5.22;;;;;;;21.87;40.78;102144.41;5180353;28;20034;-82
2022/06/16 10:25:02;;;;;;;7.03;3.75;;;;;;;21.93;40.24;102154.34;5191848;28;20027;-79
2022/06/16 10:27:40;;;;;;;6.90;4.30;;;;;;;21.96;40.77;102153.72;5198649;28;20083;-81
2022/06/16 10:30:32;;;;;;;5.35;3.75;;;;;;;21.96;41.02;102159.34;5222996;28;20043;-80
2022/06/16 10:33:22;;;;;;;8.43;3.47;;;;;;;22.14;40.61;102166.59;5306212;28;20020;-81
2022/06/16 10:36:24;;;;;;;5.20;3.60;;;;;;;22.01;40.65;102167.66;5307532;28;20031;-82
2022/06/16 10:39:27;;;;;;;16.25;14.68;;;;;;;21.97;41.12;102172.28;5188066;28;20088;-81
2022/06/16 10:42:17;;;;;;;6.55;4.07;;;;;;;21.83;40.69;102157.53;5197963;28;20034;-77
2022/06/16 10:44:52;;;;;;;27.70;24.55;;;;;;;21.82;40.91;102161.53;5198211;28;20018;-76
2022/06/16 10:47:31;;;;;;;;;;;;;;;22.08;41.36;102161.47;5197784;28;20058;-76
2022/06/16 10:50:05;;;;;;;5.50;4.22;;;;;;;21.94;40.99;102156.03;5198361;28;19971;-75
2022/06/16 10:52:39;;;;;;;6.05;5.10;;;;;;;22.05;41.08;102156.50;5197813;28;20393;-76
2022/06/16 10:55:10;;;;;;;10.10;5.30;;;;;;;21.90;40.58;102155.03;5188612;28;20023;-77
2022/06/16 10:57:47;;;;;;;5.50;3.73;;;;;;;22.12;40.99;102146.34;5197732;28;20047;-78
2022/06/16 11:00:21;;;;;;;7.65;4.13;;;;;;;22.00;41.09;102148.19;5198185;28;20682;-72
2022/06/16 11:03:05;;;;;;;11.50;5.95;;;;;;;22.30;41.43;102137.84;5197186;28;20033;-71
2022/06/16 11:06:06;;;;;;;8.10;7.15;;;;;;;22.32;41.64;102139.16;5197767;28;20045;-72
2022/06/16 11:08:44;;;;;;;5.13;3.95;;;;;;;22.46;41.35;102140.91;5192368;28;20044;-70
2022/06/16 11:11:32;;;;;;;7.35;3.53;;;;;;;22.47;41.17;102154.72;5193680;28;20027;-71
2022/06/16 11:14:03;;;;;;;9.65;5.03;;;;;;;22.39;40.54;102137.78;5194667;28;20030;-68
2022/06/16 11:16:38;;;;;;;5.85;3.53;;;;;;;22.55;40.80;102142.53;5197127;28;20041;-69
2022/06/16 11:19:24;;;;;;;9.48;7.88;;;;;;;22.50;40.38;102133.44;5197742;28;20026;-67
2022/06/16 11:21:56;;;;;;;6.20;4.07;;;;;;;22.66;39.86;102134.50;5197511;28;20114;-68
2022/06/16 11:24:31;;;;;;;7.93;3.63;;;;;;;22.74;40.69;102142.09;5188689;28;20031;-67
2022/06/16 11:27:15;;;;;;;6.32;3.15;;;;;;;22.85;40.53;102139.69;5197096;28;20033;-70
2022/06/16 11:29:50;;;;;;;6.85;3.40;;;;;;;22.90;39.93;102131.00;5192632;28;20027;-69
2022/06/16 11:32:24;;;;;;;4.63;3.47;;;;;;;23.02;39.88;102135.13;5197404;28;20026;-69
2022/06/16 11:34:56;;;;;;;5.07;3.15;;;;;;;23.05;40.08;102125.94;5197562;28;20026;-70
2022/06/16 11:37:40;;;;;;;6.10;3.15;;;;;;;23.33;40.05;102141.19;5197185;28;20109;-70
2022/06/16 11:40:29;;;;;;;9.43;3.50;;;;;;;23.32;39.89;102133.91;5197710;28;20064;-71
2022/06/16 11:43:13;;;;;;;6.78;3.45;;;;;;;23.29;38.86;102131.75;5197830;28;20018;-70
2022/06/16 11:46:26;;;;;;;6.10;3.80;;;;;;;23.45;39.06;102134.78;5188291;28;20030;-71
2022/06/16 11:49:10;;;;;;;7.03;3.80;;;;;;;23.56;39.69;102136.00;5194298;28;20145;-71
2022/06/16 11:51:51;;;;;;;8.18;3.92;;;;;;;23.34;38.97;102137.22;5196342;28;20030;-72
2022/06/16 11:54:47;;;;;;;6.10;3.40;;;;;;;23.39;38.77;102128.50;5196794;28;20538;-72
2022/06/16 11:57:41;;;;;;;4.88;2.97;;;;;;;23.47;39.10;102134.41;5194769;28;20050;-69
2022/06/16 12:00:22;;;;;;;5.20;3.22;;;;;;;23.61;38.75;102137.78;5197667;28;20029;-68
2022/06/16 12:03:31;;;;;;;5.85;3.83;;;;;;;23.63;39.17;102141.09;5187697;28;20030;-70
2022/06/16 12:06:24;;;;;;;5.18;3.42;;;;;;;23.69;38.58;102151.03;5176609;28;20030;-69
2022/06/16 12:09:12;;;;;;;6.72;3.58;;;;;;;23.72;38.73;102146.69;5183097;28;20117;-69
2022/06/16 12:12:01;;;;;;;4.82;3.20;;;;;;;23.72;38.84;102139.03;5196611;28;20034;-68
2022/06/16 12:14:50;;;;;;;16.35;13.35;;;;;;;24.01;38.44;102140.09;5196798;28;20027;-69
2022/06/16 12:17:37;;;;;;;5.72;3.35;;;;;;;23.79;38.21;102142.13;5197198;28;20026;-68
2022/06/16 12:20:22;;;;;;;80.90;71.13;;;;;;;24.14;38.14;102138.91;5195658;28;20073;-69
2022/06/16 12:23:02;;;;;;;6.15;3.78;;;;;;;24.15;36.92;102146.22;5197126;28;20235;-69
2022/06/16 12:25:51;;;;;;;6.50;3.25;;;;;;;24.13;37.27;102164.78;5197147;28;20461;-68
2022/06/16 12:28:39;;;;;;;6.20;3.03;;;;;;;24.28;37.26;102161.25;5196556;28;20033;-68
2022/06/16 12:31:24;;;;;;;3.97;3.58;;;;;;;24.04;37.10;102167.72;5196352;28;20031;-68
2022/06/16 12:34:05;;;;;;;6.00;3.55;;;;;;;24.16;37.55;102181.91;5195840;28;20026;-68
2022/06/16 12:36:42;;;;;;;6.38;4.40;;;;;;;24.18;37.43;102185.19;5196400;28;20022;-68
2022/06/16 12:39:38;;;;;;;10.15;4.72;;;;;;;24.16;37.42;102193.25;5196172;28;20038;-68
2022/06/16 12:42:15;;;;;;;5.90;5.15;;;;;;;23.99;37.34;102187.75;5195266;28;20042;-68
2022/06/16 12:44:53;;;;;;;6.10;3.88;;;;;;;23.84;37.66;102186.41;5178470;28;20177;-69
2022/06/16 12:47:30;;;;;;;6.20;3.65;;;;;;;24.10;37.65;102180.47;5179624;28;20038;-68
2022/06/16 12:50:18;;;;;;;6.93;3.70;;;;;;;24.21;37.00;102178.84;5190608;28;20061;-69
2022/06/16 12:52:57;;;;;;;6.25;3.55;;;;;;;24.19;36.67;102175.53;5199642;28;20509;-69
2022/06/16 12:55:37;;;;;;;3.92;3.13;;;;;;;24.68;37.12;102175.63;5199559;28;20469;-69
2022/06/16 12:58:19;;;;;;;4.85;2.90;;;;;;;24.80;36.18;102173.94;5199870;28;20042;-68
2022/06/16 13:00:55;;;;;;;5.70;3.28;;;;;;;24.54;35.92;102175.13;5199514;28;20026;-68
2022/06/16 13:03:36;;;;;;;4.47;2.95;;;;;;;24.75;35.88;102180.72;5199910;28;20031;-69
2022/06/16 13:06:09;;;;;;;5.80;3.38;;;;;;;24.87;35.57;102168.50;5199056;28;20042;-69
2022/06/16 13:08:46;;;;;;;4.50;3.53;;;;;;;25.03;35.95;102180.81;5179247;28;20066;-69
2022/06/16 13:11:25;;;;;;;6.05;3.70;;;;;;;25.41;35.77;102171.03;5180472;28;20034;-69
2022/06/16 13:14:07;;;;;;;4.47;2.83;;;;;;;25.40;35.66;102169.38;5195620;28;20026;-68
2022/06/16 13:16:41;;;;;;;4.85;3.25;;;;;;;25.19;34.98;102177.25;5199034;28;20113;-70
2022/06/16 13:19:18;;;;;;;3.83;3.28;;;;;;;25.13;35.30;102165.28;5199682;28;20075;-70
2022/06/16 13:21:56;;;;;;;7.32;3.45;;;;;;;25.26;35.38;102171.78;5199889;28;20034;-68
2022/06/16 13:24:57;;;;;;;6.68;2.90;;;;;;;25.44;35.53;102166.63;5199662;28;20023;-69
2022/06/16 13:27:38;;;;;;;5.55;3.20;;;;;;;25.41;34.91;102165.34;5190604;28;20049;-69
2022/06/16 13:30:17;;;;;;;5.13;3.08;;;;;;;25.53;34.56;102170.16;5182453;28;20054;-69
2022/06/16 13:32:48;;;;;;;5.03;2.95;;;;;;;25.68;34.47;102174.25;5199705;28;20030;-72
2022/06/16 13:35:22;;;;;;;7.20;3.47;;;;;;;25.31;34.59;102165.84;5198545;28;20031;-68
2022/06/16 13:38:02;;;;;;;7.95;3.08;;;;;;;25.44;34.53;102166.63;5199224;28;20308;-70
2022/06/16 13:40:42;;;;;;;7.25;4.45;;;;;;;25.21;34.62;102163.50;5199564;28;20026;-69
2022/06/16 13:43:17;;;;;;;6.47;3.10;;;;;;;25.71;34.69;102159.31;5198562;28;20041;-69
2022/06/16 13:46:00;;;;;;;3.43;2.90;;;;;;;25.96;34.59;102155.19;5182314;28;20077;-71
2022/06/16 13:48:49;;;;;;;4.25;2.38;;;;;;;26.06;34.92;102158.72;5185704;28;20719;-73
2022/06/16 13:51:42;;;;;;;3.42;2.40;;;;;;;26.26;34.32;102157.63;5198484;28;20546;-73
2022/06/16 13:54:15;;;;;;;6.32;2.90;;;;;;;26.30;33.24;102155.69;5199002;28;20385;-72
2022/06/16 13:56:46;;;;;;;7.40;3.42;;;;;;;26.12;33.36;102154.41;5199138;28;20397;-78
2022/06/16 13:59:33;;;;;;;5.90;3.00;;;;;;;26.26;33.38;102134.88;5198506;28;20026;-71
2022/06/16 14:02:16;;;;;;;5.70;2.97;;;;;;;26.34;33.51;102135.91;5187632;28;20031;-72
2022/06/16 14:05:06;;;;;;;3.53;2.97;;;;;;;26.44;32.64;102136.16;5196598;28;20121;-72
2022/06/16 14:07:55;;;;;;;2.85;2.20;;;;;;;26.65;32.73;102129.38;5199163;28;20338;-72
2022/06/16 14:10:36;;;;;;;4.32;2.70;;;;;;;26.27;32.69;102135.69;5198888;28;20030;-72
2022/06/16 14:13:23;;;;;;;10.00;9.00;;;;;;;26.30;32.80;102134.97;5198309;28;20127;-71
2022/06/16 14:16:00;;;;;;;7.50;2.97;;;;;;;26.30;32.89;102115.88;5198702;28;20034;-70
2022/06/16 14:19:30;;;;;;;6.03;3.08;;;;;;;26.63;32.43;102124.03;5195794;28;20070;-71
2022/06/16 14:22:13;;;;;;;3.42;2.40;;;;;;;26.53;32.98;102121.75;5293118;28;20047;-70
2022/06/16 14:25:07;;;;;;;7.38;2.53;;;;;;;26.54;33.49;102112.06;5297885;28;20090;-69
2022/06/16 14:27:49;;;;;;;5.00;2.53;;;;;;;26.87;34.09;102120.16;5185742;28;20034;-69
2022/06/16 14:30:27;;;;;;;4.35;2.65;;;;;;;27.00;32.71;102128.56;5190704;28;20018;-68
2022/06/16 14:33:05;;;;;;;3.88;2.80;;;;;;;26.92;32.56;102136.13;5197674;28;20057;-69
2022/06/16 14:35:48;;;;;;;4.13;2.35;;;;;;;26.99;32.51;102132.59;5218198;28;20024;-69
2022/06/16 14:38:29;;;;;;;5.95;4.05;;;;;;;26.99;32.54;102132.59;5305130;28;20035;-69
2022/06/16 14:41:12;;;;;;;7.28;3.20;;;;;;;27.08;32.71;102136.06;5304183;28;20391;-70
2022/06/16 14:43:55;;;;;;;3.03;2.60;;;;;;;27.10;32.32;102143.03;5304913;28;20020;-68
2022/06/16 14:46:36;;;;;;;6.90;2.58;;;;;;;27.24;32.27;102136.03;5239051;28;20022;-69
2022/06/16 14:49:09;;;;;;;5.13;2.38;;;;;;;27.11;32.61;102141.84;5278553;28;20051;-69
2022/06/16 14:51:46;;;;;;;5.82;2.83;;;;;;;27.23;31.87;102154.34;5230333;28;20060;-69
2022/06/16 14:54:46;;;;;;;3.70;2.38;;;;;;;27.41;31.87;102157.56;5188097;28;20026;-69
2022/06/16 14:57:25;;;;;;;7.30;3.20;;;;;;;27.16;31.94;102149.25;5211025;28;20043;-68
2022/06/16 14:59:59;;;;;;;4.30;2.50;;;;;;;27.07;33.09;102134.41;5219871;28;20205;-68
2022/06/16 15:02:33;;;;;;;6.93;2.97;;;;;;;27.24;32.71;102131.16;5196495;28;20117;-69
2022/06/16 15:05:08;;;;;;;10.93;6.32;;;;;;;27.21;32.74;102123.38;5197977;28;20031;-72
2022/06/16 15:07:46;;;;;;;7.10;3.72;;;;;;;27.11;32.71;102123.94;5195732;28;20146;-69
2022/06/16 15:10:21;;;;;;;7.80;4.90;;;;;;;27.16;32.90;102119.97;5211195;28;20362;-70
2022/06/16 15:12:53;;;;;;;4.85;3.67;;;;;;;26.95;32.07;102126.84;5197400;28;20038;-69
2022/06/16 15:15:26;;;;;;;4.22;3.20;;;;;;;27.03;32.04;102128.63;5196999;28;20087;-69
2022/06/16 15:18:10;;;;;;;4.50;2.65;;;;;;;27.13;32.12;102135.78;5197569;28;20026;-69
2022/06/16 15:20:55;;;;;;;5.20;2.33;;;;;;;27.09;31.58;102132.84;5197679;28;20026;-69
2022/06/16 15:23:31;;;;;;;6.03;2.90;;;;;;;27.10;31.54;102134.50;5196914;28;20382;-68
2022/06/16 15:26:05;;;;;;;3.72;2.75;;;;;;;26.96;32.12;102133.34;5194877;28;20045;-68
2022/06/16 15:28:47;;;;;;;3.92;2.72;;;;;;;26.70;31.89;102137.63;5176989;28;20035;-69
2022/06/16 15:31:22;;;;;;;6.13;2.92;;;;;;;26.69;32.40;102144.53;5195818;28;20038;-70
2022/06/16 15:36:59;;;;;;;4.10;2.40;;;;;;;26.77;32.29;102132.13;5196493;28;20377;-69
2022/06/16 15:39:37;;;;;;;4.78;2.30;;;;;;;27.20;32.74;102143.66;5197489;28;20046;-69
2022/06/16 15:42:17;;;;;;;3.63;2.80;;;;;;;26.82;32.49;102146.06;5196021;28;20045;-70
2022/06/16 15:44:59;;;;;;;4.05;2.40;;;;;;;26.87;33.08;102142.09;5179402;28;20385;-68
2022/06/16 15:47:35;;;;;;;4.85;3.00;;;;;;;26.85;32.73;102125.38;5177136;28;20046;-67
2022/06/16 15:50:14;;;;;;;3.67;2.33;;;;;;;26.77;32.81;102125.59;5198676;28;20410;-71
2022/06/16 15:52:51;;;;;;;28.50;25.83;;;;;;;26.81;33.06;102130.16;5202129;28;20031;-70
2022/06/16 15:55:29;;;;;;;7.15;6.30;;;;;;;26.59;33.20;102120.31;5198731;28;20065;-69
2022/06/16 15:58:07;;;;;;;4.55;3.17;;;;;;;26.35;33.56;102118.44;5195915;28;20058;-70
2022/06/16 16:00:40;;;;;;;4.00;2.53;;;;;;;26.20;34.11;102124.97;5189811;28;20110;-69
2022/06/16 16:03:14;;;;;;;6.47;2.50;;;;;;;26.39;34.11;102136.44;5288826;28;20506;-70
2022/06/16 16:05:50;;;;;;;4.50;3.03;;;;;;;26.39;33.58;102127.91;5251982;28;20042;-72
2022/06/16 16:08:25;;;;;;;4.97;2.53;;;;;;;26.45;33.58;102115.03;5196597;28;20030;-72
2022/06/16 16:11:17;;;;;;;4.60;3.08;;;;;;;26.30;33.91;102118.72;5196800;28;20496;-74
2022/06/16 16:13:55;;;;;;;5.97;2.88;;;;;;;26.21;33.81;102116.06;5225310;28;20039;-73
2022/06/16 16:16:29;;;;;;;6.13;2.78;;;;;;;26.08;33.74;102117.38;5304554;28;20169;-81
2022/06/16 16:19:07;;;;;;;5.63;3.35;;;;;;;26.08;34.10;102119.34;5183164;28;20031;-78
2022/06/16 16:21:45;;;;;;;7.57;6.30;;;;;;;26.08;34.09;102123.03;5197897;28;20030;-80
2022/06/16 16:24:19;;;;;;;21.48;15.15;;;;;;;26.14;34.29;102120.75;5201485;28;20394;-79
2022/06/16 16:26:59;;;;;;;10.00;3.23;;;;;;;26.14;34.64;102126.44;5200403;28;20083;-78
2022/06/16 16:29:31;;;;;;;3.92;2.70;;;;;;;26.20;34.78;102136.31;5201022;28;20031;-79
2022/06/16 16:32:06;;;;;;;4.57;2.60;;;;;;;26.27;34.24;102130.84;5199740;28;20110;-79
2022/06/16 16:34:47;;;;;;;4.72;2.42;;;;;;;26.34;33.93;102131.03;5193352;28;20030;-78
2022/06/16 16:37:32;;;;;;;4.95;3.20;;;;;;;26.55;33.97;102129.94;5180925;28;20110;-78
2022/06/16 16:40:21;;;;;;;5.90;3.77;;;;;;;26.59;33.15;102125.19;5179881;28;20053;-79
2022/06/16 16:43:01;;;;;;;3.72;2.40;;;;;;;26.70;32.89;102123.41;5194316;28;20772;-78
2022/06/16 16:45:44;;;;;;;22.00;19.67;;;;;;;27.06;33.54;102110.00;5200534;28;20034;-79
2022/06/16 16:48:21;;;;;;;30.05;27.00;;;;;;;27.13;32.55;102127.25;5199613;28;20045;-80
2022/06/16 16:50:55;;;;;;;40.78;36.60;;;;;;;26.97;32.99;102118.75;5205012;28;20418;-78
2022/06/16 16:53:43;;;;;;;4.50;3.75;;;;;;;26.72;33.40;102106.78;5194641;28;20046;-79
2022/06/16 16:56:25;;;;;;;3.25;2.70;;;;;;;26.52;33.66;102102.22;5219514;28;20027;-78
2022/06/16 16:59:07;;;;;;;4.57;2.95;;;;;;;26.42;33.69;102093.03;5274186;28;20049;-79
2022/06/16 17:01:43;;;;;;;5.60;2.90;;;;;;;26.24;34.17;102088.94;5200176;28;20030;-78
2022/06/16 17:04:19;;;;;;;4.55;2.40;;;;;;;26.21;34.37;102086.81;5200739;28;20034;-79
2022/06/16 17:06:51;;;;;;;5.03;2.83;;;;;;;26.17;34.14;102091.59;5201635;28;20038;-77
2022/06/16 17:09:23;;;;;;;4.90;2.45;;;;;;;26.00;34.24;102098.44;5261142;28;20023;-77
2022/06/16 17:11:55;;;;;;;4.07;2.50;;;;;;;26.06;34.56;102091.31;5309674;28;20032;-78
2022/06/16 17:14:35;;;;;;;5.78;3.05;;;;;;;25.68;34.69;102091.88;5307310;28;20467;-80
2022/06/16 17:17:08;;;;;;;3.75;2.65;;;;;;;25.66;34.72;102089.38;5211665;28;20133;-77
2022/06/16 17:19:46;;;;;;;3.47;2.85;;;;;;;25.70;34.99;102095.19;5200541;28;20034;-78
2022/06/16 17:22:18;;;;;;;3.30;2.60;;;;;;;25.62;34.93;102096.16;5202152;28;20022;-79
2022/06/16 17:24:50;;;;;;;6.55;2.72;;;;;;;25.65;34.89;102103.97;5199280;28;20476;-79
2022/06/16 17:27:24;;;;;;;4.38;2.80;;;;;;;25.72;34.88;102121.19;5191851;28;20037;-79
2022/06/16 17:29:55;;;;;;;4.05;2.45;;;;;;;25.59;34.63;102111.91;5198941;28;20019;-79
